createdAt,value
2017-07-28T00:00:03.578Z,99.99
2017-07-28T00:01:03.688Z,99.99
2017-07-28T00:02:03.644Z,99.99
2017-07-28T00:03:03.592Z,99.99
2017-07-28T00:04:03.628Z,99.99
2017-07-28T00:05:03.622Z,99.99
2017-07-28T00:06:03.592Z,99.99
2017-07-28T00:07:03.695Z,99.99
2017-07-28T00:08:03.682Z,99.99
2017-07-28T00:09:03.662Z,99.99
2017-07-28T00:10:03.600Z,99.99
2017-07-28T00:11:03.620Z,99.99
2017-07-28T00:12:03.619Z,99.99
2017-07-28T00:13:03.774Z,99.99
2017-07-28T00:14:03.619Z,99.99
2017-07-28T00:15:03.653Z,99.99
2017-07-28T00:16:03.596Z,99.99
2017-07-28T00:17:03.618Z,99.99
2017-07-28T00:18:03.618Z,99.99
2017-07-28T00:19:03.655Z,99.99
2017-07-28T00:20:03.658Z,99.99
2017-07-28T00:21:03.658Z,99.99
2017-07-28T00:22:03.623Z,99.99
2017-07-28T00:23:03.621Z,99.99
2017-07-28T00:24:03.624Z,99.99
2017-07-28T00:25:03.595Z,99.99
2017-07-28T00:26:03.601Z,99.99
2017-07-28T00:27:03.595Z,99.99
2017-07-28T00:28:03.597Z,99.99
2017-07-28T00:29:03.600Z,99.99
2017-07-28T00:30:03.627Z,99.99
2017-07-28T00:31:03.604Z,99.99
2017-07-28T00:32:03.601Z,99.99
2017-07-28T00:33:03.606Z,99.99
2017-07-28T00:34:03.662Z,99.99
2017-07-28T00:35:03.669Z,99.99
2017-07-28T00:36:03.669Z,99.99
2017-07-28T00:37:03.664Z,99.99
2017-07-28T00:38:03.637Z,99.99
2017-07-28T00:39:03.634Z,99.99
2017-07-28T00:40:03.668Z,99.99
2017-07-28T00:41:03.670Z,99.99
2017-07-28T00:42:03.666Z,99.99
2017-07-28T00:43:03.636Z,99.99
2017-07-28T00:44:03.633Z,99.99
2017-07-28T00:45:03.607Z,99.99
2017-07-28T00:46:03.608Z,99.99
2017-07-28T00:47:03.609Z,99.99
2017-07-28T00:48:03.615Z,99.99
2017-07-28T00:49:03.612Z,99.99
2017-07-28T00:50:03.612Z,99.99
2017-07-28T00:51:03.685Z,99.99
2017-07-28T00:52:03.656Z,99.99
2017-07-28T00:53:03.677Z,99.99
2017-07-28T00:54:03.699Z,99.99
2017-07-28T00:55:03.713Z,99.99
2017-07-28T00:56:03.656Z,99.99
2017-07-28T00:57:03.714Z,99.99
2017-07-28T00:58:03.735Z,99.99
2017-07-28T00:59:03.696Z,99.99
2017-07-28T01:00:03.664Z,99.99
2017-07-28T01:01:03.639Z,99.99
2017-07-28T01:02:03.676Z,99.99
2017-07-28T01:03:03.637Z,99.99
2017-07-28T01:04:03.610Z,99.99
2017-07-28T01:05:03.629Z,99.99
2017-07-28T01:06:03.626Z,99.99
2017-07-28T01:07:03.593Z,99.99
2017-07-28T01:08:03.627Z,99.99
2017-07-28T01:09:03.612Z,99.99
2017-07-28T01:10:03.681Z,99.99
2017-07-28T01:11:03.654Z,99.99
2017-07-28T01:12:03.654Z,99.99
2017-07-28T01:13:03.653Z,99.99
2017-07-28T01:14:03.658Z,99.99
2017-07-28T01:15:03.628Z,99.99
2017-07-28T01:16:03.654Z,99.99
2017-07-28T01:17:03.654Z,99.99
2017-07-28T01:18:03.694Z,99.99
2017-07-28T01:19:03.655Z,99.99
2017-07-28T01:20:03.661Z,99.99
2017-07-28T01:21:03.722Z,99.99
2017-07-28T01:22:03.635Z,99.99
2017-07-28T01:23:03.704Z,99.99
2017-07-28T01:24:03.697Z,99.99
2017-07-28T01:25:03.639Z,99.99
2017-07-28T01:26:03.703Z,99.99
2017-07-28T01:27:03.640Z,99.99
2017-07-28T01:28:03.669Z,99.99
2017-07-28T01:29:03.743Z,99.99
2017-07-28T01:30:03.710Z,99.99
2017-07-28T01:31:03.709Z,99.99
2017-07-28T01:32:03.669Z,99.99
2017-07-28T01:33:03.708Z,99.99
2017-07-28T01:34:03.639Z,99.99
2017-07-28T01:35:03.732Z,99.99
2017-07-28T01:36:03.645Z,99.99
2017-07-28T01:37:03.675Z,99.99
2017-07-28T01:38:03.675Z,99.99
2017-07-28T01:39:03.736Z,99.99
2017-07-28T01:40:03.680Z,99.99
2017-07-28T01:41:03.737Z,99.99
2017-07-28T01:42:03.715Z,99.99
2017-07-28T01:43:03.683Z,99.99
2017-07-28T01:44:03.684Z,99.99
2017-07-28T01:45:03.719Z,99.99
2017-07-28T01:46:03.684Z,99.99
2017-07-28T01:47:03.647Z,99.99
2017-07-28T01:48:03.652Z,99.99
2017-07-28T01:49:03.688Z,99.99
2017-07-28T01:50:03.711Z,99.99
2017-07-28T01:51:03.741Z,99.99
2017-07-28T01:52:03.684Z,99.99
2017-07-28T01:53:03.651Z,99.99
2017-07-28T01:54:03.687Z,99.99
2017-07-28T01:55:03.663Z,99.99
2017-07-28T01:56:03.653Z,99.99
2017-07-28T01:57:03.692Z,99.99
2017-07-28T01:58:03.719Z,99.99
2017-07-28T01:59:03.724Z,99.99
2017-07-28T02:00:03.654Z,99.99
2017-07-28T02:01:03.679Z,99.99
2017-07-28T02:02:03.679Z,99.99
2017-07-28T02:03:03.716Z,99.99
2017-07-28T02:04:03.657Z,99.99
2017-07-28T02:05:03.656Z,99.99
2017-07-28T02:06:03.692Z,99.99
2017-07-28T02:07:03.720Z,99.99
2017-07-28T02:08:03.664Z,99.99
2017-07-28T02:09:03.691Z,99.99
2017-07-28T02:10:03.664Z,99.99
2017-07-28T02:11:03.685Z,99.99
2017-07-28T02:12:03.695Z,99.99
2017-07-28T02:13:03.745Z,99.99
2017-07-28T02:14:03.687Z,99.99
2017-07-28T02:15:03.803Z,99.99
2017-07-28T02:16:03.733Z,99.99
2017-07-28T02:17:03.669Z,99.99
2017-07-28T02:18:03.735Z,99.99
2017-07-28T02:19:03.690Z,99.99
2017-07-28T02:20:03.722Z,99.99
2017-07-28T02:21:03.724Z,99.99
2017-07-28T02:22:03.703Z,99.99
2017-07-28T02:23:03.727Z,99.99
2017-07-28T02:24:03.702Z,99.99
2017-07-28T02:25:03.702Z,99.99
2017-07-28T02:26:03.730Z,99.99
2017-07-28T02:27:03.708Z,99.99
2017-07-28T02:28:03.742Z,99.99
2017-07-28T02:29:03.697Z,99.99
2017-07-28T02:30:03.670Z,99.99
2017-07-28T02:31:03.730Z,99.99
2017-07-28T02:32:03.693Z,99.99
2017-07-28T02:33:03.712Z,99.99
2017-07-28T02:34:03.677Z,99.99
2017-07-28T02:35:03.765Z,99.99
2017-07-28T02:36:03.764Z,99.99
2017-07-28T02:37:03.742Z,99.99
2017-07-28T02:38:03.710Z,99.99
2017-07-28T02:39:03.771Z,99.99
2017-07-28T02:40:03.721Z,99.99
2017-07-28T02:41:03.686Z,99.99
2017-07-28T02:42:03.720Z,99.99
2017-07-28T02:43:03.722Z,99.99
2017-07-28T02:44:03.774Z,99.99
2017-07-28T02:45:03.683Z,99.99
2017-07-28T02:46:03.739Z,99.99
2017-07-28T02:47:03.773Z,99.99
2017-07-28T02:48:03.684Z,99.99
2017-07-28T02:49:03.704Z,99.99
2017-07-28T02:50:03.686Z,99.99
2017-07-28T02:51:03.722Z,99.99
2017-07-28T02:52:03.707Z,99.99
2017-07-28T02:53:03.723Z,99.99
2017-07-28T02:54:03.744Z,99.99
2017-07-28T02:55:03.706Z,99.99
2017-07-28T02:56:03.689Z,99.99
2017-07-28T02:57:03.719Z,99.99
2017-07-28T02:58:03.727Z,99.99
2017-07-28T02:59:03.744Z,99.99
2017-07-28T03:00:03.727Z,99.99
2017-07-28T03:01:03.710Z,99.99
2017-07-28T03:02:03.730Z,99.99
2017-07-28T03:03:03.786Z,99.99
2017-07-28T03:04:03.695Z,99.99
2017-07-28T03:05:03.728Z,99.99
2017-07-28T03:06:03.825Z,99.99
2017-07-28T03:07:03.731Z,99.99
2017-07-28T03:08:03.750Z,99.99
2017-07-28T03:09:03.715Z,99.99
2017-07-28T03:10:03.793Z,99.99
2017-07-28T03:11:03.713Z,99.99
2017-07-28T03:12:03.733Z,99.99
2017-07-28T03:13:03.765Z,99.99
2017-07-28T03:14:03.757Z,99.99
2017-07-28T03:15:03.767Z,99.99
2017-07-28T03:16:03.716Z,99.99
2017-07-28T03:17:03.731Z,99.99
2017-07-28T03:18:03.835Z,99.99
2017-07-28T03:19:03.761Z,99.99
2017-07-28T03:20:03.723Z,99.99
2017-07-28T03:21:03.739Z,99.99
2017-07-28T03:22:03.760Z,99.99
2017-07-28T03:23:03.704Z,99.99
2017-07-28T03:24:03.744Z,99.99
2017-07-28T03:25:03.798Z,99.99
2017-07-28T03:26:03.700Z,99.99
2017-07-28T03:27:03.740Z,99.99
2017-07-28T03:28:03.744Z,99.99
2017-07-28T03:29:03.761Z,99.99
2017-07-28T03:30:03.717Z,99.99
2017-07-28T03:31:03.780Z,99.99
2017-07-28T03:32:03.725Z,99.99
2017-07-28T03:33:03.742Z,99.99
2017-07-28T03:34:03.746Z,99.99
2017-07-28T03:35:03.747Z,99.99
2017-07-28T03:36:03.749Z,99.99
2017-07-28T03:37:03.745Z,99.99
2017-07-28T03:38:03.714Z,99.99
2017-07-28T03:39:03.753Z,99.99
2017-07-28T03:40:03.745Z,99.99
2017-07-28T03:41:03.809Z,99.99
2017-07-28T03:42:03.781Z,99.99
2017-07-28T03:43:03.784Z,99.99
2017-07-28T03:44:03.721Z,99.99
2017-07-28T03:45:03.714Z,99.99
2017-07-28T03:46:03.801Z,99.99
2017-07-28T03:47:03.783Z,99.99
2017-07-28T03:48:03.754Z,99.99
2017-07-28T03:49:03.754Z,99.99
2017-07-28T03:50:03.715Z,99.99
2017-07-28T03:51:03.779Z,99.99
2017-07-28T03:52:03.783Z,99.99
2017-07-28T03:53:03.784Z,99.99
2017-07-28T03:54:03.751Z,99.99
2017-07-28T03:55:03.782Z,99.99
2017-07-28T03:56:03.743Z,99.99
2017-07-28T03:57:03.723Z,99.99
2017-07-28T03:58:03.745Z,99.99
2017-07-28T03:59:03.808Z,99.99
2017-07-28T04:00:03.722Z,99.99
2017-07-28T04:01:03.764Z,99.99
2017-07-28T04:02:03.724Z,99.99
2017-07-28T04:03:03.797Z,99.99
2017-07-28T04:04:03.732Z,99.99
2017-07-28T04:05:03.727Z,99.99
2017-07-28T04:06:03.788Z,99.99
2017-07-28T04:07:03.751Z,99.99
2017-07-28T04:08:03.793Z,99.99
2017-07-28T04:09:03.804Z,99.99
2017-07-28T04:10:03.763Z,99.99
2017-07-28T04:11:03.766Z,99.99
2017-07-28T04:12:03.788Z,99.99
2017-07-28T04:13:03.819Z,99.99
2017-07-28T04:14:03.767Z,99.99
2017-07-28T04:15:03.754Z,99.99
2017-07-28T04:16:03.769Z,99.99
2017-07-28T04:17:03.821Z,99.99
2017-07-28T04:18:03.824Z,99.99
2017-07-28T04:19:03.759Z,99.99
2017-07-28T04:20:03.758Z,99.99
2017-07-28T04:21:03.759Z,99.99
2017-07-28T04:22:03.775Z,99.99
2017-07-28T04:23:03.804Z,99.99
2017-07-28T04:24:03.750Z,99.99
2017-07-28T04:25:03.738Z,99.99
2017-07-28T04:26:03.808Z,99.99
2017-07-28T04:27:03.772Z,99.99
2017-07-28T04:28:03.795Z,99.99
2017-07-28T04:29:03.807Z,99.99
2017-07-28T04:30:03.741Z,99.99
2017-07-28T04:31:03.776Z,99.99
2017-07-28T04:32:03.745Z,99.99
2017-07-28T04:33:03.776Z,99.99
2017-07-28T04:34:03.825Z,99.99
2017-07-28T04:35:03.783Z,99.99
2017-07-28T04:36:03.739Z,99.99
2017-07-28T04:37:03.748Z,99.99
2017-07-28T04:38:03.779Z,99.99
2017-07-28T04:39:03.763Z,99.99
2017-07-28T04:40:03.814Z,99.99
2017-07-28T04:41:03.780Z,99.99
2017-07-28T04:42:03.781Z,99.99
2017-07-28T04:43:03.777Z,99.99
2017-07-28T04:44:03.749Z,99.99
2017-07-28T04:45:03.783Z,99.99
2017-07-28T04:46:03.782Z,99.99
2017-07-28T04:47:03.846Z,99.99
2017-07-28T04:48:03.750Z,99.99
2017-07-28T04:49:03.783Z,99.99
2017-07-28T04:50:03.784Z,99.99
2017-07-28T04:51:03.785Z,99.99
2017-07-28T04:52:03.788Z,99.99
2017-07-28T04:53:03.785Z,99.99
2017-07-28T04:54:03.785Z,99.99
2017-07-28T04:55:03.824Z,99.99
2017-07-28T04:56:03.790Z,99.99
2017-07-28T04:57:03.823Z,99.99
2017-07-28T04:58:03.785Z,99.99
2017-07-28T04:59:03.838Z,99.99
2017-07-28T05:00:03.761Z,99.99
2017-07-28T05:01:03.824Z,99.99
2017-07-28T05:02:03.795Z,99.99
2017-07-28T05:03:03.795Z,99.99
2017-07-28T05:04:03.827Z,99.99
2017-07-28T05:05:03.796Z,99.99
2017-07-28T05:06:03.799Z,99.99
2017-07-28T05:07:03.764Z,99.99
2017-07-28T05:08:03.765Z,99.99
2017-07-28T05:09:03.836Z,99.99
2017-07-28T05:10:03.793Z,99.99
2017-07-28T05:11:03.837Z,99.99
2017-07-28T05:12:03.795Z,99.99
2017-07-28T05:13:03.766Z,99.99
2017-07-28T05:14:03.798Z,99.99
2017-07-28T05:15:03.832Z,99.99
2017-07-28T05:16:03.835Z,99.99
2017-07-28T05:17:03.836Z,99.99
2017-07-28T05:18:03.837Z,99.99
2017-07-28T05:19:03.835Z,99.99
2017-07-28T05:20:03.843Z,99.99
2017-07-28T05:21:03.771Z,99.99
2017-07-28T05:22:03.803Z,99.99
2017-07-28T05:23:03.856Z,99.99
2017-07-28T05:24:03.809Z,99.99
2017-07-28T05:25:03.841Z,99.99
2017-07-28T05:26:03.774Z,99.99
2017-07-28T05:27:03.866Z,99.99
2017-07-28T05:28:03.843Z,99.99
2017-07-28T05:29:03.858Z,99.99
2017-07-28T05:30:03.844Z,99.99
2017-07-28T05:31:03.843Z,99.99
2017-07-28T05:32:03.781Z,99.99
2017-07-28T05:33:03.894Z,99.99
2017-07-28T05:34:03.814Z,99.99
2017-07-28T05:35:03.781Z,99.99
2017-07-28T05:36:03.853Z,99.99
2017-07-28T05:37:03.814Z,99.99
2017-07-28T05:38:03.850Z,99.99
2017-07-28T05:39:03.848Z,99.99
2017-07-28T05:40:03.850Z,99.99
2017-07-28T05:41:03.787Z,99.99
2017-07-28T05:42:03.783Z,99.99
2017-07-28T05:43:03.826Z,99.99
2017-07-28T05:44:03.785Z,99.99
2017-07-28T05:45:03.846Z,99.99
2017-07-28T05:46:03.813Z,99.99
2017-07-28T05:47:03.852Z,99.99
2017-07-28T05:48:03.823Z,99.99
2017-07-28T05:49:03.788Z,99.99
2017-07-28T05:50:03.788Z,99.99
2017-07-28T05:51:03.790Z,99.99
2017-07-28T05:52:03.822Z,99.99
2017-07-28T05:53:03.787Z,99.99
2017-07-28T05:54:03.859Z,99.99
2017-07-28T05:55:03.813Z,99.78
2017-07-28T05:56:03.790Z,98.99
2017-07-28T05:57:03.819Z,98.53
2017-07-28T05:58:03.792Z,96.69
2017-07-28T05:59:03.793Z,95.07
2017-07-28T06:00:03.860Z,92.32
2017-07-28T06:01:03.796Z,91.38
2017-07-28T06:02:03.796Z,90.02
2017-07-28T06:03:03.925Z,89.83
2017-07-28T06:04:03.864Z,89.83
2017-07-28T06:05:03.882Z,87.72
2017-07-28T06:06:03.796Z,87.98
2017-07-28T06:07:03.829Z,86.22
2017-07-28T06:08:03.887Z,85.93
2017-07-28T06:09:03.800Z,82.48
2017-07-28T06:10:03.864Z,84.71
2017-07-28T06:11:03.803Z,84.17
2017-07-28T06:12:03.800Z,85.61
2017-07-28T06:13:03.886Z,82.90
2017-07-28T06:14:03.802Z,85.08
2017-07-28T06:15:03.804Z,80.10
2017-07-28T06:16:03.839Z,81.50
2017-07-28T06:17:03.869Z,79.89
2017-07-28T06:18:03.870Z,83.28
2017-07-28T06:19:03.869Z,81.10
2017-07-28T06:20:03.850Z,80.94
2017-07-28T06:21:03.842Z,82.77
2017-07-28T06:22:03.804Z,80.47
2017-07-28T06:23:03.806Z,79.79
2017-07-28T06:24:03.888Z,80.21
2017-07-28T06:25:03.808Z,78.49
2017-07-28T06:26:03.838Z,78.07
2017-07-28T06:27:03.811Z,76.52
2017-07-28T06:28:03.845Z,76.44
2017-07-28T06:29:03.842Z,78.31
2017-07-28T06:30:03.878Z,78.97
2017-07-28T06:31:03.874Z,75.02
2017-07-28T06:32:03.813Z,77.67
2017-07-28T06:33:03.876Z,74.87
2017-07-28T06:34:03.813Z,73.06
2017-07-28T06:35:03.855Z,72.69
2017-07-28T06:36:03.845Z,71.52
2017-07-28T06:37:03.815Z,70.58
2017-07-28T06:38:03.914Z,71.07
2017-07-28T06:39:03.882Z,73.14
2017-07-28T06:40:03.817Z,70.66
2017-07-28T06:41:03.816Z,73.93
2017-07-28T06:42:03.818Z,69.34
2017-07-28T06:43:03.818Z,72.20
2017-07-28T06:44:03.905Z,69.67
2017-07-28T06:45:03.821Z,69.34
2017-07-28T06:46:03.852Z,68.87
2017-07-28T06:47:03.851Z,67.72
2017-07-28T06:48:03.831Z,68.91
2017-07-28T06:49:03.825Z,70.50
2017-07-28T06:50:03.857Z,68.01
2017-07-28T06:51:03.854Z,70.32
2017-07-28T06:52:03.828Z,68.99
2017-07-28T06:53:03.824Z,65.39
2017-07-28T06:54:03.899Z,65.65
2017-07-28T06:55:03.878Z,66.48
2017-07-28T06:56:03.858Z,67.52
2017-07-28T06:57:03.825Z,68.43
2017-07-28T06:58:03.893Z,69.67
2017-07-28T06:59:03.827Z,66.17
2017-07-28T07:00:03.897Z,67.98
2017-07-28T07:01:03.830Z,68.06
2017-07-28T07:02:03.897Z,67.98
2017-07-28T07:03:03.863Z,68.16
2017-07-28T07:04:03.831Z,69.75
2017-07-28T07:05:03.895Z,71.65
2017-07-28T07:06:03.899Z,69.18
2017-07-28T07:07:03.896Z,69.46
2017-07-28T07:08:03.862Z,69.65
2017-07-28T07:09:03.864Z,70.40
2017-07-28T07:10:03.864Z,69.23
2017-07-28T07:11:03.833Z,69.51
2017-07-28T07:12:03.864Z,70.37
2017-07-28T07:13:03.916Z,71.70
2017-07-28T07:14:03.900Z,73.89
2017-07-28T07:15:03.906Z,72.69
2017-07-28T07:16:03.871Z,71.67
2017-07-28T07:17:03.838Z,70.50
2017-07-28T07:18:03.840Z,72.88
2017-07-28T07:19:03.869Z,70.87
2017-07-28T07:20:03.870Z,71.81
2017-07-28T07:21:03.871Z,71.60
2017-07-28T07:22:03.841Z,72.48
2017-07-28T07:23:03.906Z,71.65
2017-07-28T07:24:03.871Z,73.19
2017-07-28T07:25:03.842Z,72.88
2017-07-28T07:26:03.842Z,71.49
2017-07-28T07:27:03.876Z,73.01
2017-07-28T07:28:03.875Z,70.95
2017-07-28T07:29:03.877Z,72.72
2017-07-28T07:30:03.877Z,73.69
2017-07-28T07:31:03.876Z,72.07
2017-07-28T07:32:03.881Z,72.61
2017-07-28T07:33:03.881Z,71.78
2017-07-28T07:34:03.877Z,71.62
2017-07-28T07:35:03.881Z,71.44
2017-07-28T07:36:03.880Z,71.70
2017-07-28T07:37:03.884Z,71.15
2017-07-28T07:38:03.880Z,71.03
2017-07-28T07:39:03.917Z,70.06
2017-07-28T07:40:03.921Z,69.59
2017-07-28T07:41:03.884Z,70.58
2017-07-28T07:42:03.888Z,69.05
2017-07-28T07:43:03.885Z,73.30
2017-07-28T07:44:03.887Z,71.54
2017-07-28T07:45:03.919Z,68.43
2017-07-28T07:46:03.855Z,68.27
2017-07-28T07:47:03.918Z,66.53
2017-07-28T07:48:03.856Z,67.33
2017-07-28T07:49:03.890Z,67.44
2017-07-28T07:50:03.889Z,67.57
2017-07-28T07:51:03.890Z,72.30
2017-07-28T07:52:03.887Z,66.61
2017-07-28T07:53:03.892Z,66.92
2017-07-28T07:54:03.888Z,66.45
2017-07-28T07:55:03.892Z,66.20
2017-07-28T07:56:03.862Z,67.13
2017-07-28T07:57:03.928Z,65.76
2017-07-28T07:58:03.927Z,66.89
2017-07-28T07:59:03.900Z,65.50
2017-07-28T08:00:03.897Z,65.11
2017-07-28T08:01:03.864Z,66.58
2017-07-28T08:02:03.892Z,66.64
2017-07-28T08:03:03.933Z,66.27
2017-07-28T08:04:03.866Z,65.42
2017-07-28T08:05:03.893Z,66.58
2017-07-28T08:06:03.894Z,66.06
2017-07-28T08:07:03.930Z,64.90
2017-07-28T08:08:03.899Z,64.65
2017-07-28T08:09:03.868Z,65.06
2017-07-28T08:10:03.997Z,63.49
2017-07-28T08:11:03.931Z,64.00
2017-07-28T08:12:03.934Z,63.98
2017-07-28T08:13:03.872Z,64.00
2017-07-28T08:14:03.876Z,63.95
2017-07-28T08:15:03.903Z,62.27
2017-07-28T08:16:03.936Z,63.46
2017-07-28T08:17:03.942Z,60.81
2017-07-28T08:18:03.936Z,60.20
2017-07-28T08:19:03.903Z,62.02
2017-07-28T08:20:03.940Z,59.78
2017-07-28T08:21:03.874Z,60.14
2017-07-28T08:22:03.939Z,61.71
2017-07-28T08:23:03.940Z,61.35
2017-07-28T08:24:03.917Z,62.30
2017-07-28T08:25:03.941Z,61.46
2017-07-28T08:26:03.945Z,59.71
2017-07-28T08:27:03.946Z,61.82
2017-07-28T08:28:03.950Z,60.55
2017-07-28T08:29:03.944Z,61.27
2017-07-28T08:30:03.945Z,61.94
2017-07-28T08:31:03.921Z,63.41
2017-07-28T08:32:03.947Z,62.77
2017-07-28T08:33:03.883Z,63.72
2017-07-28T08:34:03.948Z,63.23
2017-07-28T08:35:03.881Z,61.35
2017-07-28T08:36:03.949Z,62.20
2017-07-28T08:37:03.883Z,61.33
2017-07-28T08:38:03.997Z,58.84
2017-07-28T08:39:03.957Z,62.50
2017-07-28T08:40:03.958Z,60.09
2017-07-28T08:41:03.953Z,60.37
2017-07-28T08:42:03.916Z,58.76
2017-07-28T08:43:03.925Z,59.63
2017-07-28T08:44:03.958Z,59.17
2017-07-28T08:45:03.949Z,61.61
2017-07-28T08:46:03.920Z,60.61
2017-07-28T08:47:03.956Z,60.73
2017-07-28T08:48:03.889Z,60.76
2017-07-28T08:49:03.929Z,62.69
2017-07-28T08:50:03.957Z,61.78
2017-07-28T08:51:03.891Z,60.30
2017-07-28T08:52:03.890Z,62.79
2017-07-28T08:53:03.960Z,62.12
2017-07-28T08:54:03.893Z,62.10
2017-07-28T08:55:03.960Z,62.84
2017-07-28T08:56:03.925Z,63.98
2017-07-28T08:57:03.961Z,62.53
2017-07-28T08:58:03.895Z,61.43
2017-07-28T08:59:03.929Z,61.91
2017-07-28T09:00:03.898Z,60.58
2017-07-28T09:01:03.965Z,61.63
2017-07-28T09:02:03.925Z,61.30
2017-07-28T09:03:03.899Z,62.87
2017-07-28T09:04:03.968Z,62.84
2017-07-28T09:05:03.964Z,63.54
2017-07-28T09:06:03.930Z,62.30
2017-07-28T09:07:03.967Z,62.14
2017-07-28T09:08:03.903Z,61.66
2017-07-28T09:09:03.969Z,62.35
2017-07-28T09:10:03.971Z,63.02
2017-07-28T09:11:03.969Z,63.77
2017-07-28T09:12:03.970Z,63.23
2017-07-28T09:13:03.934Z,62.92
2017-07-28T09:14:03.934Z,60.58
2017-07-28T09:15:03.907Z,61.71
2017-07-28T09:16:03.972Z,61.33
2017-07-28T09:17:03.908Z,62.61
2017-07-28T09:18:03.972Z,62.87
2017-07-28T09:19:03.977Z,62.27
2017-07-28T09:20:03.974Z,61.46
2017-07-28T09:21:03.975Z,62.90
2017-07-28T09:22:03.978Z,64.82
2017-07-28T09:24:03.947Z,61.63
2017-07-28T09:25:03.976Z,62.02
2017-07-28T09:26:03.979Z,63.13
2017-07-28T09:27:03.944Z,59.89
2017-07-28T09:28:03.947Z,59.89
2017-07-28T09:29:03.977Z,60.09
2017-07-28T09:30:03.911Z,60.07
2017-07-28T09:31:03.914Z,60.07
2017-07-28T09:32:03.987Z,60.20
2017-07-28T09:33:03.946Z,58.94
2017-07-28T09:34:03.917Z,60.22
2017-07-28T09:35:03.984Z,61.30
2017-07-28T09:36:03.953Z,58.59
2017-07-28T09:37:03.948Z,57.71
2017-07-28T09:38:03.919Z,58.92
2017-07-28T09:39:03.976Z,59.99
2017-07-28T09:40:03.922Z,60.58
2017-07-28T09:41:03.950Z,59.45
2017-07-28T09:42:03.952Z,60.01
2017-07-28T09:43:03.951Z,59.15
2017-07-28T09:44:03.954Z,61.97
2017-07-28T09:45:04.006Z,62.10
2017-07-28T09:46:03.990Z,58.92
2017-07-28T09:47:03.955Z,61.12
2017-07-28T09:48:03.924Z,61.25
2017-07-28T09:49:03.958Z,56.93
2017-07-28T09:50:03.993Z,57.84
2017-07-28T09:51:03.991Z,59.63
2017-07-28T09:52:03.958Z,59.45
2017-07-28T09:53:03.960Z,60.17
2017-07-28T09:54:03.928Z,60.48
2017-07-28T09:55:03.993Z,59.86
2017-07-28T09:56:03.995Z,58.61
2017-07-28T09:57:03.932Z,59.02
2017-07-28T09:58:03.930Z,60.01
2017-07-28T09:59:03.931Z,56.95
2017-07-28T10:00:04.000Z,57.23
2017-07-28T10:01:03.965Z,57.82
2017-07-28T10:02:03.933Z,58.12
2017-07-28T10:03:03.936Z,60.35
2017-07-28T10:04:03.965Z,57.28
2017-07-28T10:05:03.968Z,56.08
2017-07-28T10:06:03.963Z,57.71
2017-07-28T10:07:03.967Z,57.87
2017-07-28T10:08:03.937Z,56.44
2017-07-28T10:09:03.970Z,56.57
2017-07-28T10:10:04.064Z,57.48
2017-07-28T10:11:04.018Z,59.12
2017-07-28T10:12:03.976Z,57.79
2017-07-28T10:13:03.940Z,58.12
2017-07-28T10:14:03.937Z,57.69
2017-07-28T10:15:03.973Z,59.61
2017-07-28T10:16:03.977Z,57.71
2017-07-28T10:17:03.974Z,56.97
2017-07-28T10:18:04.013Z,57.15
2017-07-28T10:19:03.975Z,56.82
2017-07-28T10:20:03.944Z,56.85
2017-07-28T10:21:04.013Z,57.18
2017-07-28T10:22:03.976Z,57.56
2017-07-28T10:23:03.978Z,56.77
2017-07-28T10:24:03.976Z,57.33
2017-07-28T10:25:03.947Z,57.18
2017-07-28T10:26:03.978Z,59.22
2017-07-28T10:27:03.948Z,56.82
2017-07-28T10:28:04.018Z,57.33
2017-07-28T10:29:03.980Z,57.21
2017-07-28T10:30:03.980Z,55.17
2017-07-28T10:31:03.980Z,55.96
2017-07-28T10:32:03.980Z,54.94
2017-07-28T10:33:03.951Z,52.83
2017-07-28T10:34:03.980Z,52.93
2017-07-28T10:35:03.951Z,52.45
2017-07-28T10:36:03.986Z,52.35
2017-07-28T10:37:03.953Z,52.98
2017-07-28T10:38:03.987Z,53.39
2017-07-28T10:39:03.983Z,53.47
2017-07-28T10:40:03.985Z,53.51
2017-07-28T10:41:03.958Z,51.99
2017-07-28T10:42:04.022Z,53.34
2017-07-28T10:43:03.986Z,53.67
2017-07-28T10:44:04.022Z,54.56
2017-07-28T10:45:03.991Z,54.66
2017-07-28T10:46:04.020Z,54.58
2017-07-28T10:47:03.995Z,53.14
2017-07-28T10:48:03.990Z,52.57
2017-07-28T10:49:04.031Z,53.16
2017-07-28T10:50:03.990Z,53.56
2017-07-28T10:51:04.027Z,55.27
2017-07-28T10:52:03.961Z,53.56
2017-07-28T10:53:03.963Z,55.45
2017-07-28T10:54:03.993Z,55.88
2017-07-28T10:55:03.964Z,54.04
2017-07-28T10:56:03.966Z,52.35
2017-07-28T10:57:04.032Z,53.69
2017-07-28T10:58:03.964Z,52.88
2017-07-28T10:59:03.965Z,53.90
2017-07-28T11:00:03.997Z,55.75
2017-07-28T11:01:03.996Z,54.96
2017-07-28T11:02:03.969Z,56.54
2017-07-28T11:03:03.970Z,55.27
2017-07-28T11:04:04.034Z,56.08
2017-07-28T11:05:03.998Z,53.54
2017-07-28T11:06:04.004Z,55.30
2017-07-28T11:07:04.038Z,56.29
2017-07-28T11:08:04.003Z,54.10
2017-07-28T11:09:04.002Z,52.85
2017-07-28T11:10:04.008Z,51.57
2017-07-28T11:11:04.047Z,52.12
2017-07-28T11:12:03.987Z,54.45
2017-07-28T11:13:04.002Z,52.50
2017-07-28T11:14:04.045Z,52.96
2017-07-28T11:15:04.008Z,55.19
2017-07-28T11:16:04.044Z,51.54
2017-07-28T11:17:03.974Z,52.12
2017-07-28T11:18:04.057Z,53.90
2017-07-28T11:19:03.974Z,55.45
2017-07-28T11:20:04.012Z,55.93
2017-07-28T11:21:04.010Z,50.60
2017-07-28T11:22:04.012Z,52.43
2017-07-28T11:23:04.012Z,51.59
2017-07-28T11:24:04.046Z,51.11
2017-07-28T11:25:04.030Z,50.78
2017-07-28T11:26:04.013Z,49.85
2017-07-28T11:27:04.021Z,50.50
2017-07-28T11:28:03.984Z,47.73
2017-07-28T11:29:04.016Z,52.12
2017-07-28T11:30:03.986Z,50.02
2017-07-28T11:31:03.985Z,49.09
2017-07-28T11:32:04.021Z,47.86
2017-07-28T11:33:04.050Z,51.26
2017-07-28T11:34:04.019Z,50.20
2017-07-28T11:35:04.017Z,51.01
2017-07-28T11:36:03.987Z,51.49
2017-07-28T11:37:03.986Z,51.21
2017-07-28T11:38:04.019Z,48.34
2017-07-28T11:39:03.990Z,49.55
2017-07-28T11:40:04.054Z,53.14
2017-07-28T11:41:04.057Z,49.80
2017-07-28T11:42:04.112Z,51.46
2017-07-28T11:43:04.061Z,51.71
2017-07-28T11:44:04.026Z,50.05
2017-07-28T11:45:04.106Z,51.84
2017-07-28T11:46:04.022Z,49.02
2017-07-28T11:47:03.992Z,46.48
2017-07-28T11:48:03.999Z,49.29
2017-07-28T11:49:04.051Z,47.81
2017-07-28T11:50:04.024Z,50.71
2017-07-28T11:51:04.029Z,47.00
2017-07-28T11:52:03.997Z,47.83
2017-07-28T11:53:04.030Z,48.51
2017-07-28T11:54:04.026Z,46.78
2017-07-28T11:55:04.064Z,49.52
2017-07-28T11:56:04.031Z,45.62
2017-07-28T11:57:04.030Z,44.15
2017-07-28T11:58:04.031Z,45.50
2017-07-28T11:59:04.001Z,43.80
2017-07-28T12:00:04.001Z,44.39
2017-07-28T12:01:04.004Z,43.20
2017-07-28T12:02:04.034Z,48.03
2017-07-28T12:03:04.001Z,44.97
2017-07-28T12:04:04.034Z,44.80
2017-07-28T12:05:04.036Z,42.95
2017-07-28T12:06:04.005Z,44.20
2017-07-28T12:07:04.007Z,44.12
2017-07-28T12:08:04.007Z,42.67
2017-07-28T12:09:04.070Z,44.93
2017-07-28T12:10:04.038Z,43.88
2017-07-28T12:11:04.072Z,45.60
2017-07-28T12:12:04.038Z,46.00
2017-07-28T12:13:04.073Z,45.65
2017-07-28T12:14:04.041Z,46.02
2017-07-28T12:15:04.077Z,45.75
2017-07-28T12:16:04.044Z,45.12
2017-07-28T12:17:04.079Z,46.35
2017-07-28T12:18:04.076Z,45.65
2017-07-28T12:19:04.083Z,45.77
2017-07-28T12:20:04.083Z,44.95
2017-07-28T12:21:04.044Z,44.25
2017-07-28T12:22:04.049Z,46.43
2017-07-28T12:23:04.044Z,45.85
2017-07-28T12:24:04.046Z,45.25
2017-07-28T12:25:04.079Z,45.50
2017-07-28T12:26:04.014Z,44.27
2017-07-28T12:27:04.017Z,45.43
2017-07-28T12:28:04.049Z,45.48
2017-07-28T12:29:04.016Z,46.32
2017-07-28T12:30:04.052Z,45.70
2017-07-28T12:31:04.048Z,46.85
2017-07-28T12:32:04.019Z,47.93
2017-07-28T12:33:04.051Z,47.00
2017-07-28T12:34:04.050Z,48.19
2017-07-28T12:35:04.020Z,50.80
2017-07-28T12:36:04.086Z,47.38
2017-07-28T12:37:04.087Z,49.75
2017-07-28T12:38:04.089Z,46.27
2017-07-28T12:39:04.023Z,47.23
2017-07-28T12:40:04.025Z,45.68
2017-07-28T12:41:04.055Z,44.85
2017-07-28T12:42:04.032Z,46.32
2017-07-28T12:43:04.056Z,46.60
2017-07-28T12:44:04.097Z,47.00
2017-07-28T12:45:04.058Z,50.45
2017-07-28T12:46:04.055Z,45.40
2017-07-28T12:47:04.059Z,46.02
2017-07-28T12:48:04.059Z,44.85
2017-07-28T12:49:04.030Z,46.88
2017-07-28T12:50:04.032Z,46.63
2017-07-28T12:51:04.099Z,43.88
2017-07-28T12:52:04.097Z,45.07
2017-07-28T12:53:04.095Z,46.32